Tokuyo Maru No21 — JK5540 — position and weather

sailwx.info

Track history (hours):
 
Tides and Currents Weather Stations Pressure Air Temp Water Temp Dewpoint Dewpoint Depression Visibility Wind Speed Wind Dir Waves Ship Positions

Tokuyo Maru No21

Last reported at 2018-May-24 08:30 UTC. Time now 2018-May-24 21:34 UTC.
Position N 33°57' E 135°02'.

Length 67 m; draft 4.5 m.

Type: Tanker. MMSI: 431401849.

Date/timePositionNaut miles runAvg speedWind from/ knotsBaromVisibWave heightAir tempDewpointWater temp
2018-May-24 08:30N 33°57' E 135°02'812.6
2018-May-24 07:52N 34°05' E 135°02'412.6
2018-May-24 07:31N 34°10' E 135°02'612.3
2018-May-24 07:00N 34°16' E 135°03'612.0
2018-May-24 06:31N 34°21' E 135°06'612.2
2018-May-24 06:01N 34°26' E 135°11'612.6
2018-May-24 05:31N 34°31' E 135°16'612.3
2018-May-24 05:00N 34°35' E 135°21'4 7.5
2018-May-24 04:30N 34°34' E 135°26'0 0.1
2018-May-24 04:00N 34°34' E 135°26'0 0.0
2018-May-24 03:29N 34°34' E 135°26'0 0.0
2018-May-24 03:01N 34°34' E 135°26'0 0.0
2018-May-24 02:30N 34°34' E 135°26'0 0.0
2018-May-24 02:00N 34°34' E 135°26'0 0.0
2018-May-24 01:30N 34°34' E 135°26'3 6.8
2018-May-24 01:00N 34°36' E 135°22'611.9
2018-May-24 00:30N 34°31' E 135°17'611.9
2018-May-24 00:01N 34°27' E 135°12'611.7
2018-May-23 23:30N 34°23' E 135°08'611.3
2018-May-23 23:00N 34°18' E 135°04'510.5
2018-May-23 22:30N 34°13' E 135°03'612.0
2018-May-23 22:01N 34°07' E 135°03'611.9
2018-May-23 21:31N 34°01' E 135°03'611.7
2018-May-23 21:00N 33°55' E 135°03'611.1
2018-May-23 20:27N 33°49' E 135°05'5 0.1
2018-May-22 06:42N 33°53' E 135°02'412.3
2018-May-22 06:20N 33°57' E 135°02'712.8
2018-May-22 05:46N 34°05' E 135°03'412.7
2018-May-22 05:29N 34°08' E 135°02'612.4
2018-May-22 05:00N 34°14' E 135°03'611.9
2018-May-22 04:30N 34°20' E 135°05'612.4
2018-May-22 04:00N 34°25' E 135°09'612.2
2018-May-22 03:30N 34°30' E 135°14'712.3
2018-May-22 02:57N 34°35' E 135°19'510.7
2018-May-22 02:30N 34°36' E 135°25'2 0.5
2018-May-21 22:50N 34°34' E 135°26'2 5.3
2018-May-21 22:30N 34°36' E 135°25'4 8.9
2018-May-21 22:00N 34°36' E 135°19'0 0.9
2018-May-21 21:30N 34°36' E 135°19'0 0.0
2018-May-21 20:57N 34°36' E 135°19'0 0.0
2018-May-21 20:30N 34°36' E 135°19'2 3.7
2018-May-21 20:00N 34°34' E 135°18'612.5
2018-May-21 19:30N 34°29' E 135°13'612.5
2018-May-21 19:00N 34°24' E 135°09'612.1
2018-May-21 18:30N 34°19' E 135°04'612.3
2018-May-21 18:00N 34°13' E 135°03'612.8
2018-May-21 17:30N 34°07' E 135°03'712.7
2018-May-21 17:00N 34°00' E 135°02'1212.4
2018-May-21 16:04N 33°49' E 135°06'  
2018-May-19 11:06N 33°52' E 135°02'211.9
2018-May-19 10:55N 33°55' E 135°02'512.8
2018-May-19 10:30N 34°00' E 135°02'612.9
2018-May-19 10:00N 34°06' E 135°02'612.9
2018-May-19 09:30N 34°13' E 135°02'612.6
2018-May-19 09:00N 34°19' E 135°04'713.7
2018-May-19 08:31N 34°24' E 135°09'713.9
2018-May-19 08:00N 34°30' E 135°15'713.7
2018-May-19 07:30N 34°35' E 135°21'4 7.9
2018-May-19 07:00N 34°34' E 135°26'0 0.1
2018-May-19 03:30N 34°34' E 135°26'3 6.6
2018-May-19 03:00N 34°36' E 135°22'611.5
2018-May-19 02:30N 34°31' E 135°17'611.6
2018-May-19 02:00N 34°27' E 135°12'611.7
2018-May-19 01:30N 34°23' E 135°08'612.4
2018-May-19 01:00N 34°18' E 135°04'612.0
2018-May-19 00:31N 34°12' E 135°03'612.4
2018-May-19 00:00N 34°05' E 135°02'612.0
2018-May-18 23:30N 33°59' E 135°02'611.5
2018-May-18 22:58N 33°53' E 135°02'610.9
2018-May-18 22:28N 33°49' E 135°06'5 0.2
2018-May-17 12:52N 33°53' E 135°02'411.8
2018-May-17 12:30N 33°57' E 135°02'611.3
2018-May-17 12:00N 34°02' E 135°02'611.6
2018-May-17 11:29N 34°09' E 135°02'511.3
2018-May-17 11:00N 34°14' E 135°02'510.6
2018-May-17 10:30N 34°19' E 135°04'511.0
2018-May-17 10:00N 34°24' E 135°08'611.9
2018-May-17 09:29N 34°28' E 135°13'712.0
2018-May-17 08:56N 34°33' E 135°19'511.7
2018-May-17 08:30N 34°36' E 135°23'3 5.6
2018-May-17 08:00N 34°34' E 135°26'0 0.0
2018-May-17 07:30N 34°34' E 135°26'0 0.0
2018-May-17 07:00N 34°34' E 135°26'0 0.0
2018-May-17 06:30N 34°34' E 135°26'0 0.0
2018-May-17 06:00N 34°34' E 135°26'0 0.0
2018-May-17 05:30N 34°34' E 135°26'0 0.6
2018-May-17 04:58N 34°35' E 135°25'3 5.4
2018-May-17 04:30N 34°36' E 135°23'2 4.0
2018-May-17 03:59N 34°34' E 135°23'3 2.8
2018-May-17 02:53N 34°33' E 135°26'0 0.0
2018-May-17 02:28N 34°33' E 135°26'0 0.0
2018-May-16 23:28N 34°33' E 135°26'2 4.5
2018-May-16 22:59N 34°33' E 135°24'1 1.1
2018-May-16 22:30N 34°34' E 135°23'0 0.1
2018-May-16 22:00N 34°34' E 135°23'0 0.0
2018-May-16 21:30N 34°34' E 135°23'0 0.0
2018-May-16 21:00N 34°34' E 135°23'0 0.0
2018-May-16 20:29N 34°34' E 135°23'0 0.0
2018-May-16 20:00N 34°34' E 135°23'0 0.1
2018-May-16 19:30N 34°34' E 135°23'0 0.0
2018-May-16 18:58N 34°34' E 135°23'0 0.1
2018-May-16 17:46N 34°34' E 135°23'0 0.0
2018-May-16 17:28N 34°34' E 135°23'0 0.1
2018-May-16 17:00N 34°34' E 135°23'0 0.0
2018-May-16 16:30N 34°34' E 135°23'0 0.0
2018-May-16 15:59N 34°34' E 135°23'0 0.0
2018-May-16 15:30N 34°34' E 135°23'0 0.1
2018-May-16 15:00N 34°34' E 135°23'0 0.1
2018-May-16 14:30N 34°34' E 135°23'0 0.0
2018-May-16 13:59N 34°34' E 135°23'0 0.0
2018-May-16 13:24N 34°34' E 135°23'0 0.0
2018-May-16 13:00N 34°34' E 135°23'0 0.1
2018-May-16 12:30N 34°34' E 135°23'0 0.0
2018-May-16 12:00N 34°34' E 135°23'0 0.0
2018-May-16 11:26N 34°34' E 135°23'0 0.0
2018-May-16 10:58N 34°34' E 135°23'0 0.0
2018-May-16 10:30N 34°34' E 135°23'0 0.0
2018-May-16 10:00N 34°34' E 135°23'0 0.0
2018-May-16 09:28N 34°34' E 135°23'0 0.0
2018-May-16 09:00N 34°34' E 135°23'0 0.0
2018-May-16 08:29N 34°34' E 135°23'0 0.0
2018-May-16 07:57N 34°34' E 135°23'0 0.0
2018-May-16 07:29N 34°34' E 135°23'0 0.0
2018-May-16 07:00N 34°34' E 135°23'0 0.0
2018-May-16 06:30N 34°34' E 135°23'0 0.0
2018-May-16 06:00N 34°34' E 135°23'0 0.0
2018-May-16 05:30N 34°34' E 135°23'0 0.0
2018-May-16 04:58N 34°34' E 135°23'0 0.0
2018-May-16 04:29N 34°34' E 135°23'0 0.0
2018-May-16 03:59N 34°34' E 135°23'0 0.1
2018-May-16 03:30N 34°34' E 135°23'0 0.0
2018-May-16 03:00N 34°34' E 135°23'3 5.1
2018-May-16 02:30N 34°36' E 135°21'4 8.0
2018-May-16 02:00N 34°35' E 135°26'0 0.2
2018-May-16 00:36N 34°34' E 135°26'0 0.0
2018-May-16 00:30N 34°34' E 135°26'0 0.0
2018-May-15 23:59N 34°34' E 135°26'0 0.0
2018-May-15 23:24N 34°34' E 135°26'0 0.0
2018-May-15 23:00N 34°34' E 135°26'1 1.0
2018-May-15 22:29N 34°35' E 135°25'4 7.6
2018-May-15 22:00N 34°35' E 135°21'510.6
2018-May-15 21:30N 34°31' E 135°16'611.4
2018-May-15 21:00N 34°27' E 135°11'510.9
2018-May-15 20:30N 34°23' E 135°07'4 7.8
2018-May-15 20:00N 34°21' E 135°03'510.5
2018-May-15 19:30N 34°17' E 134°59'510.9
2018-May-15 19:00N 34°11' E 135°00'611.7
2018-May-15 18:30N 34°05' E 135°01'611.8
2018-May-15 18:00N 33°59' E 135°01'1011.1
2018-May-15 17:04N 33°49' E 135°05'102 8.6
2018-May-15 05:12N 34°37' E 136°54'211.4
2018-May-15 05:01N 34°39' E 136°52'611.6
2018-May-15 04:31N 34°43' E 136°48'612.3
2018-May-15 04:01N 34°49' E 136°45'612.5
2018-May-15 03:30N 34°55' E 136°42'4 8.3
2018-May-15 03:01N 34°58' E 136°39'0 0.1
2018-May-15 02:31N 34°58' E 136°39'0 0.0
2018-May-15 02:00N 34°58' E 136°39'0 0.0
2018-May-15 01:30N 34°58' E 136°39'0 0.0
2018-May-15 01:01N 34°58' E 136°39'0 0.0
2018-May-15 00:30N 34°58' E 136°39'0 0.0
2018-May-15 00:00N 34°58' E 136°39'0 0.0
2018-May-14 23:30N 34°58' E 136°39'0 0.0
2018-May-14 23:00N 34°58' E 136°39'1 1.1
2018-May-14 22:31N 34°58' E 136°39'0 0.1
2018-May-14 22:00N 34°58' E 136°39'0 0.0
2018-May-14 21:30N 34°58' E 136°39'0 0.0
2018-May-14 21:00N 34°58' E 136°39'0 0.1
2018-May-14 20:31N 34°58' E 136°39'3 5.8
2018-May-14 20:01N 34°55' E 136°41'612.4
2018-May-14 19:30N 34°50' E 136°45'612.7
2018-May-14 19:00N 34°44' E 136°49'  
Track history (hours):
 
Tides and Currents Weather Stations Pressure Air Temp Water Temp Dewpoint Dewpoint Depression Visibility Wind Speed Wind Dir Waves Ship Positions

Tokuyo Maru No21

Last reported at 2018-May-24 08:30 UTC. Time now 2018-May-24 21:34 UTC.
Position N 33°57' E 135°02'.

Length 67 m; draft 4.5 m.

Type: Tanker. MMSI: 431401849.

Date/timePositionNaut miles runAvg speedWind from/ knotsBaromVisibWave heightAir tempDewpointWater temp
2018-May-24 08:30N 33°57' E 135°02'812.6
2018-May-24 07:52N 34°05' E 135°02'412.6
2018-May-24 07:31N 34°10' E 135°02'612.3
2018-May-24 07:00N 34°16' E 135°03'612.0
2018-May-24 06:31N 34°21' E 135°06'612.2
2018-May-24 06:01N 34°26' E 135°11'612.6
2018-May-24 05:31N 34°31' E 135°16'612.3
2018-May-24 05:00N 34°35' E 135°21'4 7.5
2018-May-24 04:30N 34°34' E 135°26'0 0.1
2018-May-24 04:00N 34°34' E 135°26'0 0.0
2018-May-24 03:29N 34°34' E 135°26'0 0.0
2018-May-24 03:01N 34°34' E 135°26'0 0.0
2018-May-24 02:30N 34°34' E 135°26'0 0.0
2018-May-24 02:00N 34°34' E 135°26'0 0.0
2018-May-24 01:30N 34°34' E 135°26'3 6.8
2018-May-24 01:00N 34°36' E 135°22'611.9
2018-May-24 00:30N 34°31' E 135°17'611.9
2018-May-24 00:01N 34°27' E 135°12'611.7
2018-May-23 23:30N 34°23' E 135°08'611.3
2018-May-23 23:00N 34°18' E 135°04'510.5
2018-May-23 22:30N 34°13' E 135°03'612.0
2018-May-23 22:01N 34°07' E 135°03'611.9
2018-May-23 21:31N 34°01' E 135°03'611.7
2018-May-23 21:00N 33°55' E 135°03'611.1
2018-May-23 20:27N 33°49' E 135°05'5 0.1
2018-May-22 06:42N 33°53' E 135°02'412.3
2018-May-22 06:20N 33°57' E 135°02'712.8
2018-May-22 05:46N 34°05' E 135°03'412.7
2018-May-22 05:29N 34°08' E 135°02'612.4
2018-May-22 05:00N 34°14' E 135°03'611.9
2018-May-22 04:30N 34°20' E 135°05'612.4
2018-May-22 04:00N 34°25' E 135°09'612.2
2018-May-22 03:30N 34°30' E 135°14'712.3
2018-May-22 02:57N 34°35' E 135°19'510.7
2018-May-22 02:30N 34°36' E 135°25'2 0.5
2018-May-21 22:50N 34°34' E 135°26'2 5.3
2018-May-21 22:30N 34°36' E 135°25'4 8.9
2018-May-21 22:00N 34°36' E 135°19'0 0.9
2018-May-21 21:30N 34°36' E 135°19'0 0.0
2018-May-21 20:57N 34°36' E 135°19'0 0.0
2018-May-21 20:30N 34°36' E 135°19'2 3.7
2018-May-21 20:00N 34°34' E 135°18'612.5
2018-May-21 19:30N 34°29' E 135°13'612.5
2018-May-21 19:00N 34°24' E 135°09'612.1
2018-May-21 18:30N 34°19' E 135°04'612.3
2018-May-21 18:00N 34°13' E 135°03'612.8
2018-May-21 17:30N 34°07' E 135°03'712.7
2018-May-21 17:00N 34°00' E 135°02'1212.4
2018-May-21 16:04N 33°49' E 135°06'  
2018-May-19 11:06N 33°52' E 135°02'211.9
2018-May-19 10:55N 33°55' E 135°02'512.8
2018-May-19 10:30N 34°00' E 135°02'612.9
2018-May-19 10:00N 34°06' E 135°02'612.9
2018-May-19 09:30N 34°13' E 135°02'612.6
2018-May-19 09:00N 34°19' E 135°04'713.7
2018-May-19 08:31N 34°24' E 135°09'713.9
2018-May-19 08:00N 34°30' E 135°15'713.7
2018-May-19 07:30N 34°35' E 135°21'4 7.9
2018-May-19 07:00N 34°34' E 135°26'0 0.1
2018-May-19 03:30N 34°34' E 135°26'3 6.6
2018-May-19 03:00N 34°36' E 135°22'611.5
2018-May-19 02:30N 34°31' E 135°17'611.6
2018-May-19 02:00N 34°27' E 135°12'611.7
2018-May-19 01:30N 34°23' E 135°08'612.4
2018-May-19 01:00N 34°18' E 135°04'612.0
2018-May-19 00:31N 34°12' E 135°03'612.4
2018-May-19 00:00N 34°05' E 135°02'612.0
2018-May-18 23:30N 33°59' E 135°02'611.5
2018-May-18 22:58N 33°53' E 135°02'610.9
2018-May-18 22:28N 33°49' E 135°06'5 0.2
2018-May-17 12:52N 33°53' E 135°02'411.8
2018-May-17 12:30N 33°57' E 135°02'611.3
2018-May-17 12:00N 34°02' E 135°02'611.6
2018-May-17 11:29N 34°09' E 135°02'511.3
2018-May-17 11:00N 34°14' E 135°02'510.6
2018-May-17 10:30N 34°19' E 135°04'511.0
2018-May-17 10:00N 34°24' E 135°08'611.9
2018-May-17 09:29N 34°28' E 135°13'712.0
2018-May-17 08:56N 34°33' E 135°19'511.7
2018-May-17 08:30N 34°36' E 135°23'3 5.6
2018-May-17 08:00N 34°34' E 135°26'0 0.0
2018-May-17 07:30N 34°34' E 135°26'0 0.0
2018-May-17 07:00N 34°34' E 135°26'0 0.0
2018-May-17 06:30N 34°34' E 135°26'0 0.0
2018-May-17 06:00N 34°34' E 135°26'0 0.0
2018-May-17 05:30N 34°34' E 135°26'0 0.6
2018-May-17 04:58N 34°35' E 135°25'3 5.4
2018-May-17 04:30N 34°36' E 135°23'2 4.0
2018-May-17 03:59N 34°34' E 135°23'3 2.8
2018-May-17 02:53N 34°33' E 135°26'0 0.0
2018-May-17 02:28N 34°33' E 135°26'0 0.0
2018-May-16 23:28N 34°33' E 135°26'2 4.5
2018-May-16 22:59N 34°33' E 135°24'1 1.1
2018-May-16 22:30N 34°34' E 135°23'0 0.1
2018-May-16 22:00N 34°34' E 135°23'0 0.0
2018-May-16 21:30N 34°34' E 135°23'0 0.0
2018-May-16 21:00N 34°34' E 135°23'0 0.0
2018-May-16 20:29N 34°34' E 135°23'0 0.0
2018-May-16 20:00N 34°34' E 135°23'0 0.1
2018-May-16 19:30N 34°34' E 135°23'0 0.0
2018-May-16 18:58N 34°34' E 135°23'0 0.1
2018-May-16 17:46N 34°34' E 135°23'0 0.0
2018-May-16 17:28N 34°34' E 135°23'0 0.1
2018-May-16 17:00N 34°34' E 135°23'0 0.0
2018-May-16 16:30N 34°34' E 135°23'0 0.0
2018-May-16 15:59N 34°34' E 135°23'0 0.0
2018-May-16 15:30N 34°34' E 135°23'0 0.1
2018-May-16 15:00N 34°34' E 135°23'0 0.1
2018-May-16 14:30N 34°34' E 135°23'0 0.0
2018-May-16 13:59N 34°34' E 135°23'0 0.0
2018-May-16 13:24N 34°34' E 135°23'0 0.0
2018-May-16 13:00N 34°34' E 135°23'0 0.1
2018-May-16 12:30N 34°34' E 135°23'0 0.0
2018-May-16 12:00N 34°34' E 135°23'0 0.0
2018-May-16 11:26N 34°34' E 135°23'0 0.0
2018-May-16 10:58N 34°34' E 135°23'0 0.0
2018-May-16 10:30N 34°34' E 135°23'0 0.0
2018-May-16 10:00N 34°34' E 135°23'0 0.0
2018-May-16 09:28N 34°34' E 135°23'0 0.0
2018-May-16 09:00N 34°34' E 135°23'0 0.0
2018-May-16 08:29N 34°34' E 135°23'0 0.0
2018-May-16 07:57N 34°34' E 135°23'0 0.0
2018-May-16 07:29N 34°34' E 135°23'0 0.0
2018-May-16 07:00N 34°34' E 135°23'0 0.0
2018-May-16 06:30N 34°34' E 135°23'0 0.0
2018-May-16 06:00N 34°34' E 135°23'0 0.0
2018-May-16 05:30N 34°34' E 135°23'0 0.0
2018-May-16 04:58N 34°34' E 135°23'0 0.0
2018-May-16 04:29N 34°34' E 135°23'0 0.0
2018-May-16 03:59N 34°34' E 135°23'0 0.1
2018-May-16 03:30N 34°34' E 135°23'0 0.0
2018-May-16 03:00N 34°34' E 135°23'3 5.1
2018-May-16 02:30N 34°36' E 135°21'4 8.0
2018-May-16 02:00N 34°35' E 135°26'0 0.2
2018-May-16 00:36N 34°34' E 135°26'0 0.0
2018-May-16 00:30N 34°34' E 135°26'0 0.0
2018-May-15 23:59N 34°34' E 135°26'0 0.0
2018-May-15 23:24N 34°34' E 135°26'0 0.0
2018-May-15 23:00N 34°34' E 135°26'1 1.0
2018-May-15 22:29N 34°35' E 135°25'4 7.6
2018-May-15 22:00N 34°35' E 135°21'510.6
2018-May-15 21:30N 34°31' E 135°16'611.4
2018-May-15 21:00N 34°27' E 135°11'510.9
2018-May-15 20:30N 34°23' E 135°07'4 7.8
2018-May-15 20:00N 34°21' E 135°03'510.5
2018-May-15 19:30N 34°17' E 134°59'510.9
2018-May-15 19:00N 34°11' E 135°00'611.7
2018-May-15 18:30N 34°05' E 135°01'611.8
2018-May-15 18:00N 33°59' E 135°01'1011.1
2018-May-15 17:04N 33°49' E 135°05'102 8.6
2018-May-15 05:12N 34°37' E 136°54'211.4
2018-May-15 05:01N 34°39' E 136°52'611.6
2018-May-15 04:31N 34°43' E 136°48'612.3
2018-May-15 04:01N 34°49' E 136°45'612.5
2018-May-15 03:30N 34°55' E 136°42'4 8.3
2018-May-15 03:01N 34°58' E 136°39'0 0.1
2018-May-15 02:31N 34°58' E 136°39'0 0.0
2018-May-15 02:00N 34°58' E 136°39'0 0.0
2018-May-15 01:30N 34°58' E 136°39'0 0.0
2018-May-15 01:01N 34°58' E 136°39'0 0.0
2018-May-15 00:30N 34°58' E 136°39'0 0.0
2018-May-15 00:00N 34°58' E 136°39'0 0.0
2018-May-14 23:30N 34°58' E 136°39'0 0.0
2018-May-14 23:00N 34°58' E 136°39'1 1.1
2018-May-14 22:31N 34°58' E 136°39'0 0.1
2018-May-14 22:00N 34°58' E 136°39'0 0.0
2018-May-14 21:30N 34°58' E 136°39'0 0.0
2018-May-14 21:00N 34°58' E 136°39'0 0.1
2018-May-14 20:31N 34°58' E 136°39'3 5.8
2018-May-14 20:01N 34°55' E 136°41'612.4
2018-May-14 19:30N 34°50' E 136°45'612.7
2018-May-14 19:00N 34°44' E 136°49'  

Dump ship's entire track history